createdAt,value
2018-06-08T00:01:33.948Z,33.03
2018-06-08T00:04:02.418Z,31.27
2018-06-08T00:06:30.828Z,29.03
2018-06-08T00:08:59.224Z,29.23
2018-06-08T00:11:27.683Z,30.83
2018-06-08T00:13:56.161Z,28.60
2018-06-08T00:16:24.618Z,29.97
2018-06-08T00:18:53.036Z,30.33
2018-06-08T00:21:21.483Z,29.97
2018-06-08T00:23:49.959Z,33.77
2018-06-08T00:26:18.363Z,34.63
2018-06-08T00:28:46.795Z,32.87
2018-06-08T00:31:15.220Z,33.00
2018-06-08T00:33:43.672Z,30.07
2018-06-08T00:36:12.084Z,33.73
2018-06-08T00:38:40.692Z,35.13
2018-06-08T00:41:09.171Z,35.90
2018-06-08T00:43:37.924Z,38.50
2018-06-08T00:46:06.804Z,38.03
2018-06-08T00:48:35.263Z,39.90
2018-06-08T00:51:03.701Z,38.20
2018-06-08T00:53:32.190Z,39.17
2018-06-08T00:56:00.654Z,40.67
2018-06-08T00:58:29.090Z,39.10
2018-06-08T01:00:57.512Z,37.43
2018-06-08T01:03:25.940Z,35.27
2018-06-08T01:05:54.421Z,36.40
2018-06-08T01:08:22.835Z,30.47
2018-06-08T01:10:51.293Z,31.60
2018-06-08T01:13:19.699Z,33.27
2018-06-08T01:15:48.164Z,32.23
2018-06-08T01:18:16.707Z,32.40
2018-06-08T01:20:45.149Z,36.17
2018-06-08T01:23:13.595Z,37.03
2018-06-08T01:25:42.036Z,40.07
2018-06-08T01:28:10.451Z,38.40
2018-06-08T01:30:38.955Z,40.57
2018-06-08T01:33:07.375Z,42.40
2018-06-08T01:35:35.783Z,37.87
2018-06-08T01:38:04.211Z,36.67
2018-06-08T01:40:32.651Z,34.67
2018-06-08T01:43:01.106Z,34.33
2018-06-08T01:45:29.528Z,38.13
2018-06-08T01:47:57.947Z,38.33
2018-06-08T01:50:26.344Z,39.50
2018-06-08T01:52:54.771Z,39.17
2018-06-08T01:55:23.235Z,39.13
2018-06-08T01:57:51.663Z,38.83
2018-06-08T02:00:20.248Z,41.13
2018-06-08T02:02:48.646Z,38.23
2018-06-08T02:05:18.439Z,37.13
2018-06-08T02:07:46.919Z,39.10
2018-06-08T02:10:15.512Z,39.73
2018-06-08T02:12:43.970Z,38.80
2018-06-08T02:15:12.381Z,41.57
2018-06-08T02:17:40.803Z,41.77
2018-06-08T02:20:09.288Z,39.27
2018-06-08T02:22:37.711Z,39.40
2018-06-08T02:25:11.072Z,37.73
2018-06-08T02:27:39.538Z,38.90
2018-06-08T02:30:07.993Z,38.30
2018-06-08T02:32:36.404Z,41.33
2018-06-08T02:35:04.874Z,46.73
2018-06-08T02:37:33.288Z,44.10
2018-06-08T02:40:01.700Z,40.77
2018-06-08T02:42:30.121Z,41.27
2018-06-08T02:44:58.556Z,46.93
2018-06-08T02:47:26.960Z,47.70
2018-06-08T02:49:55.176Z,43.07
2018-06-08T02:52:23.640Z,44.00
2018-06-08T02:54:52.068Z,44.07
2018-06-08T02:57:20.478Z,42.60
2018-06-08T02:59:48.876Z,44.47
2018-06-08T03:02:17.285Z,48.50
2018-06-08T03:04:45.792Z,51.07
2018-06-08T03:07:14.256Z,49.97
2018-06-08T03:09:42.677Z,51.50
2018-06-08T03:12:11.154Z,48.57
2018-06-08T03:14:39.601Z,50.87
2018-06-08T03:17:08.025Z,48.10
2018-06-08T03:19:36.433Z,51.47
2018-06-08T03:22:04.890Z,52.30
2018-06-08T03:24:33.389Z,45.60
2018-06-08T03:27:01.823Z,45.07
2018-06-08T03:29:30.257Z,46.13
2018-06-08T03:31:58.712Z,46.83
2018-06-08T03:34:27.137Z,45.57
2018-06-08T03:36:55.648Z,43.73
2018-06-08T03:39:24.036Z,43.60
2018-06-08T03:41:52.503Z,43.37
2018-06-08T03:44:20.983Z,48.53
2018-06-08T03:46:49.424Z,45.90
2018-06-08T03:49:17.836Z,45.50
2018-06-08T03:51:46.274Z,51.20
2018-06-08T03:54:14.831Z,53.63
2018-06-08T03:56:44.001Z,49.33
2018-06-08T03:59:12.444Z,48.17
2018-06-08T04:01:40.894Z,51.13
2018-06-08T04:04:09.296Z,49.93
2018-06-08T04:06:37.704Z,51.07
2018-06-08T04:09:08.224Z,53.27
2018-06-08T04:11:36.868Z,55.60
2018-06-08T04:14:05.334Z,52.70
2018-06-08T04:16:33.858Z,46.63
2018-06-08T04:19:02.257Z,48.30
2018-06-08T04:21:30.659Z,51.30
2018-06-08T04:23:59.087Z,50.13
2018-06-08T04:26:27.547Z,56.07
2018-06-08T04:28:55.980Z,54.10
2018-06-08T04:31:24.355Z,54.70
2018-06-08T04:33:52.769Z,44.27
2018-06-08T04:36:21.184Z,47.67
2018-06-08T04:38:49.592Z,46.87
2018-06-08T04:41:18.040Z,45.70
2018-06-08T04:43:46.442Z,45.20
2018-06-08T04:46:14.888Z,44.23
2018-06-08T04:48:43.466Z,44.93
2018-06-08T04:51:11.999Z,46.50
2018-06-08T04:53:40.404Z,45.47
2018-06-08T04:56:08.816Z,45.83
2018-06-08T04:58:37.524Z,49.37
2018-06-08T05:01:05.904Z,46.80
2018-06-08T05:03:34.327Z,44.97
2018-06-08T05:06:02.777Z,44.10
2018-06-08T05:08:31.269Z,42.23
2018-06-08T05:10:59.724Z,49.10
2018-06-08T05:13:28.198Z,48.13
2018-06-08T05:15:56.620Z,46.37
2018-06-08T05:18:25.070Z,45.03
2018-06-08T05:20:54.578Z,44.57
2018-06-08T05:23:23.016Z,45.37
2018-06-08T05:25:51.471Z,48.47
2018-06-08T05:28:19.874Z,47.73
2018-06-08T05:30:48.260Z,48.50
2018-06-08T05:33:16.730Z,50.90
2018-06-08T05:35:45.143Z,46.53
2018-06-08T05:38:13.715Z,48.60
2018-06-08T05:40:42.280Z,47.57
2018-06-08T05:43:10.692Z,44.17
2018-06-08T05:45:39.148Z,43.60
2018-06-08T05:48:07.589Z,43.60
2018-06-08T05:50:36.016Z,44.60
2018-06-08T05:53:04.432Z,40.37
2018-06-08T05:55:32.898Z,41.30
2018-06-08T05:58:01.411Z,42.17
2018-06-08T06:00:29.832Z,44.60
2018-06-08T06:02:58.241Z,49.27
2018-06-08T06:05:26.800Z,48.37
2018-06-08T06:07:55.333Z,49.00
2018-06-08T06:10:23.738Z,46.70
2018-06-08T06:12:52.149Z,47.80
2018-06-08T06:15:20.577Z,45.80
2018-06-08T06:17:49.004Z,42.30
2018-06-08T06:20:17.414Z,35.60
2018-06-08T06:22:45.922Z,39.60
2018-06-08T06:25:14.408Z,39.10
2018-06-08T06:27:42.940Z,36.97
2018-06-08T06:30:12.156Z,37.47
2018-06-08T06:32:40.592Z,37.33
2018-06-08T06:35:09.244Z,43.90
2018-06-08T06:37:37.828Z,48.43
2018-06-08T06:40:06.304Z,52.30
2018-06-08T06:42:34.826Z,44.00
2018-06-08T06:45:03.308Z,48.50
2018-06-08T06:47:31.772Z,45.63
2018-06-08T06:50:00.390Z,38.60
2018-06-08T06:52:29.385Z,43.80
2018-06-08T06:54:57.792Z,36.27
2018-06-08T06:57:26.213Z,41.73
2018-06-08T06:59:54.668Z,45.93
2018-06-08T07:02:23.372Z,37.60
2018-06-08T07:04:51.904Z,36.50
2018-06-08T07:07:20.330Z,38.80
2018-06-08T07:09:48.939Z,33.73
2018-06-08T07:12:17.344Z,39.77
2018-06-08T07:14:45.776Z,45.13
2018-06-08T07:17:14.192Z,43.10
2018-06-08T07:19:42.627Z,40.10
2018-06-08T07:22:11.044Z,39.03
2018-06-08T07:24:39.454Z,37.20
2018-06-08T07:27:07.900Z,34.23
2018-06-08T07:29:36.335Z,34.67
2018-06-08T07:32:04.842Z,36.17
2018-06-08T07:34:33.323Z,34.80
2018-06-08T07:37:01.744Z,41.20
2018-06-08T07:39:30.191Z,35.87
2018-06-08T07:41:58.771Z,39.00
2018-06-08T07:44:27.323Z,37.77
2018-06-08T07:46:55.715Z,37.00
2018-06-08T07:49:24.168Z,37.77
2018-06-08T07:51:52.567Z,32.80
2018-06-08T07:54:21.060Z,34.10
2018-06-08T07:56:49.601Z,32.50
2018-06-08T07:59:18.010Z,30.17
2018-06-08T08:01:46.591Z,29.30
2018-06-08T08:04:15.051Z,32.07
2018-06-08T08:06:43.647Z,30.10
2018-06-08T08:09:12.130Z,30.50
2018-06-08T08:11:40.587Z,27.13
2018-06-08T08:14:09.017Z,31.73
2018-06-08T08:16:37.471Z,24.50
2018-06-08T08:19:05.924Z,29.03
2018-06-08T08:21:34.505Z,34.43
2018-06-08T08:24:03.035Z,33.63
2018-06-08T08:26:31.461Z,33.30
2018-06-08T08:28:59.844Z,33.37
2018-06-08T08:31:28.249Z,29.30
2018-06-08T08:33:56.699Z,34.07
2018-06-08T08:36:25.466Z,37.10
2018-06-08T08:38:53.935Z,38.53
2018-06-08T08:41:22.376Z,39.40
2018-06-08T08:43:50.793Z,36.90
2018-06-08T08:46:19.218Z,45.30
2018-06-08T08:48:47.661Z,39.23
2018-06-08T08:51:16.072Z,32.20
2018-06-08T08:53:44.552Z,38.27
2018-06-08T08:56:13.013Z,39.10
2018-06-08T08:58:41.660Z,37.53
2018-06-08T09:01:10.101Z,33.43
2018-06-08T09:03:38.560Z,29.97
2018-06-08T09:06:06.946Z,32.03
2018-06-08T09:08:35.404Z,32.67
2018-06-08T09:11:03.840Z,33.60
2018-06-08T09:13:32.252Z,32.63
2018-06-08T09:16:00.657Z,35.07
2018-06-08T09:18:29.067Z,30.37
2018-06-08T09:20:57.545Z,30.73
2018-06-08T09:23:25.984Z,28.50
2018-06-08T09:25:55.040Z,32.37
2018-06-08T09:28:23.452Z,31.53
2018-06-08T09:30:51.892Z,32.40
2018-06-08T09:33:20.331Z,30.13
2018-06-08T09:35:48.826Z,30.57
2018-06-08T09:38:17.322Z,31.87
2018-06-08T09:40:45.774Z,33.20
2018-06-08T09:43:14.210Z,33.33
2018-06-08T09:45:42.660Z,30.23
2018-06-08T09:48:11.082Z,30.00
2018-06-08T09:50:39.530Z,34.47
2018-06-08T09:53:08.085Z,32.87
2018-06-08T09:55:36.537Z,34.60
2018-06-08T09:58:05.031Z,39.90
2018-06-08T10:00:38.842Z,41.13
2018-06-08T10:03:07.288Z,38.90
2018-06-08T10:05:36.076Z,39.67
2018-06-08T10:08:04.488Z,36.23
2018-06-08T10:10:33.622Z,39.00
2018-06-08T10:13:06.273Z,40.13
2018-06-08T10:15:34.795Z,35.27
2018-06-08T10:18:03.525Z,34.67
2018-06-08T10:20:32.028Z,37.53
2018-06-08T10:23:00.520Z,33.60
2018-06-08T10:25:29.136Z,34.40
2018-06-08T10:27:57.548Z,36.40
2018-06-08T10:30:26.128Z,36.70
2018-06-08T10:32:54.564Z,40.57
2018-06-08T10:35:27.944Z,35.43
2018-06-08T10:37:57.116Z,38.77
2018-06-08T10:40:27.152Z,37.70
2018-06-08T10:42:55.580Z,37.20
2018-06-08T10:45:23.988Z,39.80
2018-06-08T10:47:52.412Z,35.13
2018-06-08T10:50:20.918Z,41.07
2018-06-08T10:52:49.332Z,37.10
2018-06-08T10:55:17.824Z,40.03
2018-06-08T10:57:46.229Z,38.20
2018-06-08T11:00:14.701Z,37.13
2018-06-08T11:02:43.201Z,38.80
2018-06-08T11:05:11.671Z,39.80
2018-06-08T11:07:40.127Z,34.77
2018-06-08T11:10:08.524Z,35.77
2018-06-08T11:12:37.839Z,34.13
2018-06-08T11:15:06.315Z,33.53
2018-06-08T11:17:34.720Z,33.30
2018-06-08T11:20:03.303Z,32.93
2018-06-08T11:22:31.708Z,33.40
2018-06-08T11:25:00.156Z,32.87
2018-06-08T11:27:28.568Z,28.63
2018-06-08T11:29:56.999Z,28.07
2018-06-08T11:32:25.435Z,27.80
2018-06-08T11:34:53.851Z,30.87
2018-06-08T11:37:23.230Z,24.77
2018-06-08T11:39:51.737Z,25.50
2018-06-08T11:42:20.284Z,24.83
2018-06-08T11:44:48.724Z,24.20
2018-06-08T11:47:17.197Z,23.30
2018-06-08T11:49:45.627Z,24.23
2018-06-08T11:52:14.249Z,23.53
2018-06-08T11:54:42.834Z,24.33
2018-06-08T11:57:11.236Z,23.47
2018-06-08T11:59:39.785Z,22.03
2018-06-08T12:02:08.663Z,22.00
2018-06-08T12:04:38.064Z,21.07
2018-06-08T12:07:10.947Z,22.47
2018-06-08T12:09:39.441Z,21.03
2018-06-08T12:12:08.591Z,21.27
2018-06-08T12:14:37.250Z,23.13
2018-06-08T12:17:05.889Z,22.57
2018-06-08T12:19:34.363Z,23.00
2018-06-08T12:22:02.886Z,22.50
2018-06-08T12:24:31.255Z,22.70
2018-06-08T12:26:59.680Z,23.80
2018-06-08T12:29:28.132Z,23.37
2018-06-08T12:31:56.556Z,23.37
2018-06-08T12:34:25.018Z,23.07
2018-06-08T12:36:53.438Z,23.63
2018-06-08T12:39:21.859Z,24.60
2018-06-08T12:41:50.627Z,25.07
2018-06-08T12:44:20.396Z,24.67
2018-06-08T12:46:49.786Z,24.30
2018-06-08T12:49:18.871Z,23.77
2018-06-08T12:51:47.348Z,23.87
2018-06-08T12:54:16.148Z,25.20
2018-06-08T12:56:44.855Z,22.67
2018-06-08T12:59:13.252Z,25.77
2018-06-08T13:01:41.753Z,24.50
2018-06-08T13:04:10.908Z,23.77
2018-06-08T13:06:39.680Z,26.30
2018-06-08T13:09:07.804Z,26.10
2018-06-08T13:11:36.379Z,25.27
2018-06-08T13:14:04.829Z,24.97
2018-06-08T13:16:33.258Z,20.60
2018-06-08T13:19:01.693Z,25.00
2018-06-08T13:21:30.106Z,23.93
2018-06-08T13:23:58.845Z,24.67
2018-06-08T13:26:27.332Z,22.97
2018-06-08T13:28:55.755Z,24.80
2018-06-08T13:31:24.269Z,22.37
2018-06-08T13:33:53.588Z,27.73
2018-06-08T13:36:22.032Z,26.97
2018-06-08T13:38:51.212Z,26.43
2018-06-08T13:41:20.080Z,28.37
2018-06-08T13:43:48.477Z,26.73
2018-06-08T13:46:28.524Z,25.70
2018-06-08T13:48:56.922Z,28.40
2018-06-08T13:51:25.512Z,27.73
2018-06-08T13:53:53.944Z,27.73
2018-06-08T13:56:22.364Z,28.23
2018-06-08T13:58:51.073Z,29.87
2018-06-08T14:01:20.406Z,28.40
2018-06-08T14:03:48.891Z,27.47
2018-06-08T14:06:18.314Z,27.10
2018-06-08T14:08:46.741Z,30.07
2018-06-08T14:11:15.359Z,33.47
2018-06-08T14:13:43.780Z,33.23
2018-06-08T14:16:19.982Z,32.60
2018-06-08T14:18:48.694Z,32.40
2018-06-08T14:21:17.143Z,30.97
2018-06-08T14:23:45.621Z,32.27
2018-06-08T14:26:14.059Z,31.87
2018-06-08T14:28:42.515Z,29.87
2018-06-08T14:31:10.933Z,29.50
2018-06-08T14:33:39.493Z,31.20
2018-06-08T14:36:07.896Z,31.87
2018-06-08T14:38:36.835Z,33.10
2018-06-08T14:41:05.376Z,33.67
2018-06-08T14:43:33.808Z,31.83
2018-06-08T14:46:02.803Z,31.67
2018-06-08T14:48:31.219Z,32.97
2018-06-08T14:50:59.596Z,31.73
2018-06-08T14:53:32.813Z,31.67
2018-06-08T14:56:11.111Z,31.30
2018-06-08T14:58:47.545Z,33.33
2018-06-08T15:01:16.076Z,32.10
2018-06-08T15:03:44.534Z,33.70
2018-06-08T15:06:12.928Z,31.47
2018-06-08T15:08:41.374Z,34.73
2018-06-08T15:11:09.843Z,30.77
2018-06-08T15:13:38.276Z,32.77
2018-06-08T15:16:07.124Z,30.67
2018-06-08T15:18:36.444Z,31.80
2018-06-08T15:21:04.864Z,31.10
2018-06-08T15:23:33.378Z,29.53
2018-06-08T15:26:01.865Z,34.63
2018-06-08T15:28:30.515Z,32.13
2018-06-08T15:30:59.284Z,34.60
2018-06-08T15:33:27.848Z,30.43
2018-06-08T15:35:57.113Z,33.00
2018-06-08T15:38:25.564Z,38.33
2018-06-08T15:40:53.973Z,35.03
2018-06-08T15:43:22.385Z,37.20
2018-06-08T15:45:50.899Z,33.57
2018-06-08T15:48:19.455Z,31.80
2018-06-08T15:50:47.566Z,36.37
2018-06-08T15:53:15.979Z,35.13
2018-06-08T15:55:44.540Z,41.30
2018-06-08T15:58:13.017Z,39.70
2018-06-08T16:00:42.391Z,41.03
2018-06-08T16:03:11.824Z,38.00
2018-06-08T16:05:40.288Z,35.20
2018-06-08T16:08:08.672Z,35.10
2018-06-08T16:10:37.108Z,38.00
2018-06-08T16:13:05.540Z,40.90
2018-06-08T16:15:33.996Z,38.90
2018-06-08T16:18:02.461Z,41.40
2018-06-08T16:20:30.872Z,37.57
2018-06-08T16:22:59.301Z,37.50
2018-06-08T16:25:27.729Z,37.00
2018-06-08T16:27:56.267Z,37.17
2018-06-08T16:30:24.677Z,36.40
2018-06-08T16:32:53.105Z,37.17
2018-06-08T16:35:21.605Z,40.90
2018-06-08T16:37:50.019Z,38.43
2018-06-08T16:40:18.490Z,37.87
2018-06-08T16:42:50.369Z,39.90
2018-06-08T16:45:18.799Z,39.30
2018-06-08T16:47:47.283Z,41.90
2018-06-08T16:50:15.744Z,46.60
2018-06-08T16:52:44.167Z,43.93
2018-06-08T16:55:12.629Z,50.53
2018-06-08T16:57:41.173Z,131.47
2018-06-08T17:00:09.620Z,95.63
2018-06-08T17:02:38.101Z,95.57
2018-06-08T17:05:06.699Z,97.90
2018-06-08T17:07:35.524Z,111.33
2018-06-08T17:10:04.053Z,97.73
2018-06-08T17:12:32.481Z,73.67
2018-06-08T17:15:00.919Z,80.70
2018-06-08T17:17:29.366Z,69.30
2018-06-08T17:19:57.795Z,67.30
2018-06-08T17:22:26.312Z,57.47
2018-06-08T17:24:54.720Z,55.73
2018-06-08T17:27:23.159Z,56.23
2018-06-08T17:29:51.575Z,55.93
2018-06-08T17:32:19.983Z,56.10
2018-06-08T17:34:48.412Z,64.40
2018-06-08T17:37:16.824Z,58.67
2018-06-08T17:39:45.439Z,62.63
2018-06-08T17:42:13.879Z,59.10
2018-06-08T17:44:42.769Z,73.03
2018-06-08T17:47:11.193Z,51.70
2018-06-08T17:49:39.750Z,58.00
2018-06-08T17:52:09.024Z,49.40
2018-06-08T17:54:37.480Z,53.90
2018-06-08T17:57:06.048Z,54.67
2018-06-08T17:59:34.456Z,53.03
2018-06-08T18:02:03.016Z,64.03
2018-06-08T18:04:31.604Z,56.40
2018-06-08T18:07:00.179Z,60.20
2018-06-08T18:09:28.641Z,55.07
2018-06-08T18:11:57.132Z,54.77
2018-06-08T18:14:26.309Z,57.73
2018-06-08T18:16:54.744Z,58.50
2018-06-08T18:19:23.156Z,71.10
2018-06-08T18:21:51.573Z,73.13
2018-06-08T18:24:20.025Z,85.77
2018-06-08T18:26:48.484Z,76.57
2018-06-08T18:29:16.912Z,65.30
2018-06-08T18:31:45.095Z,57.40
2018-06-08T18:34:13.579Z,75.60
2018-06-08T18:36:42.078Z,67.87
2018-06-08T18:39:10.562Z,64.07
2018-06-08T18:41:39.004Z,69.40
2018-06-08T18:44:07.541Z,72.87
2018-06-08T18:46:36.066Z,60.67
2018-06-08T18:49:04.582Z,69.63
2018-06-08T18:51:33.051Z,68.90
2018-06-08T18:54:01.489Z,62.77
2018-06-08T18:56:30.027Z,69.23
2018-06-08T18:58:58.471Z,63.93
2018-06-08T19:01:26.915Z,70.43
2018-06-08T19:03:55.383Z,75.00
2018-06-08T19:06:23.881Z,76.20
2018-06-08T19:08:52.366Z,70.27
2018-06-08T19:11:20.837Z,71.77
2018-06-08T19:13:49.281Z,68.90
2018-06-08T19:16:17.776Z,77.77
2018-06-08T19:18:46.222Z,80.20
2018-06-08T19:21:14.639Z,70.33
2018-06-08T19:23:43.282Z,74.87
2018-06-08T19:26:11.776Z,75.03
2018-06-08T19:28:40.250Z,74.87
2018-06-08T19:31:08.889Z,68.63
2018-06-08T19:33:37.382Z,68.07
2018-06-08T19:36:05.837Z,72.63
2018-06-08T19:38:34.291Z,62.77
2018-06-08T19:41:02.804Z,59.23
2018-06-08T19:43:31.255Z,64.00
2018-06-08T19:45:59.811Z,71.43
2018-06-08T19:48:28.263Z,69.03
2018-06-08T19:50:57.014Z,73.57
2018-06-08T19:53:25.419Z,67.20
2018-06-08T19:55:53.922Z,66.10
2018-06-08T19:58:23.320Z,69.87
2018-06-08T20:00:51.759Z,69.30
2018-06-08T20:03:20.240Z,75.60
2018-06-08T20:05:48.783Z,73.23
2018-06-08T20:08:17.491Z,72.70
2018-06-08T20:10:45.943Z,69.17
2018-06-08T20:13:14.371Z,65.80
2018-06-08T20:15:42.901Z,68.90
2018-06-08T20:18:11.375Z,63.93
2018-06-08T20:20:39.837Z,67.20
2018-06-08T20:23:08.386Z,70.00
2018-06-08T20:25:36.825Z,70.30
2018-06-08T20:28:05.355Z,68.63
2018-06-08T20:30:33.871Z,80.50
2018-06-08T20:33:02.314Z,67.27
2018-06-08T20:35:30.779Z,74.50
2018-06-08T20:37:59.301Z,71.67
2018-06-08T20:40:27.703Z,67.77
2018-06-08T20:42:56.325Z,69.27
2018-06-08T20:45:24.720Z,78.07
2018-06-08T20:47:53.123Z,71.57
2018-06-08T20:50:22.155Z,63.10
2018-06-08T20:52:50.576Z,70.50
2018-06-08T20:55:19.160Z,60.57
2018-06-08T20:57:57.916Z,64.03
2018-06-08T21:00:26.511Z,61.70
2018-06-08T21:02:54.947Z,60.10
2018-06-08T21:05:23.573Z,62.20
2018-06-08T21:07:52.013Z,62.27
2018-06-08T21:10:20.479Z,59.57
2018-06-08T21:12:48.968Z,56.77
2018-06-08T21:15:17.573Z,57.13
2018-06-08T21:17:46.019Z,55.50
2018-06-08T21:20:14.465Z,53.90
2018-06-08T21:22:43.117Z,57.17
2018-06-08T21:25:11.536Z,52.67
2018-06-08T21:27:39.980Z,57.63
2018-06-08T21:30:08.398Z,56.00
2018-06-08T21:32:36.875Z,57.90
2018-06-08T21:35:05.775Z,55.57
2018-06-08T21:37:34.188Z,49.60
2018-06-08T21:40:02.636Z,48.37
2018-06-08T21:42:31.822Z,54.50
2018-06-08T21:45:00.319Z,52.77
2018-06-08T21:47:28.742Z,52.53
2018-06-08T21:49:57.176Z,57.00
2018-06-08T21:52:25.600Z,55.13
2018-06-08T21:54:54.224Z,49.87
2018-06-08T21:57:22.683Z,48.70
2018-06-08T21:59:51.116Z,48.47
2018-06-08T22:02:20.103Z,47.70
2018-06-08T22:04:48.557Z,46.87
2018-06-08T22:07:17.022Z,58.60
2018-06-08T22:09:45.666Z,46.20
2018-06-08T22:12:14.120Z,46.47
2018-06-08T22:14:42.692Z,51.80
2018-06-08T22:17:11.148Z,49.37
2018-06-08T22:19:39.815Z,47.93
2018-06-08T22:22:08.308Z,44.80
2018-06-08T22:24:36.720Z,49.17
2018-06-08T22:27:05.252Z,50.07
2018-06-08T22:29:33.717Z,69.40
2018-06-08T22:32:02.188Z,50.23
2018-06-08T22:34:31.142Z,50.70
2018-06-08T22:36:59.558Z,63.27
2018-06-08T22:39:27.995Z,70.17
2018-06-08T22:41:56.425Z,65.60
2018-06-08T22:44:25.010Z,68.10
2018-06-08T22:46:53.510Z,70.00
2018-06-08T22:49:21.966Z,68.90
2018-06-08T22:51:50.375Z,92.53
2018-06-08T22:54:18.815Z,83.70
2018-06-08T22:56:47.280Z,84.37
2018-06-08T22:59:15.721Z,87.53
2018-06-08T23:01:44.148Z,86.90
2018-06-08T23:04:12.964Z,89.40
2018-06-08T23:06:41.436Z,92.90
2018-06-08T23:09:09.882Z,100.90
2018-06-08T23:11:38.344Z,90.70
2018-06-08T23:14:06.856Z,77.03
2018-06-08T23:16:35.302Z,78.27
2018-06-08T23:19:03.782Z,79.53
2018-06-08T23:21:32.392Z,76.00
2018-06-08T23:24:01.050Z,76.13
2018-06-08T23:26:29.511Z,79.90
2018-06-08T23:28:57.987Z,76.87
2018-06-08T23:31:26.423Z,76.57
2018-06-08T23:33:54.836Z,75.77
2018-06-08T23:36:23.253Z,75.23
2018-06-08T23:38:51.707Z,79.57
2018-06-08T23:41:20.277Z,77.00
2018-06-08T23:43:48.910Z,77.10
2018-06-08T23:46:17.303Z,77.00
2018-06-08T23:48:45.767Z,77.00
2018-06-08T23:51:15.343Z,74.40
2018-06-08T23:53:45.405Z,76.87
2018-06-08T23:56:13.820Z,79.90
2018-06-08T23:58:42.585Z,81.83
